Time;durP1;ratioP1;P1;durP2;ratioP2;P2;SDS_P1;SDS_P2;PMS_P1;PMS_P2;Temp;Humidity;BMP_temperature;BMP_pressure;BME280_temperature;BME280_humidity;BME280_pressure;Samples;Min_cycle;Max_cycle;Signal;HPM_P1;HPM_P2
2022/06/12 00:01:57;;;;;;;14.07;3.10;;;13.40;99.90;;;;;;5024747;28;20030;-95
2022/06/12 00:04:24;;;;;;;16.85;3.80;;;13.40;99.90;;;;;;5013709;28;20545;-92
2022/06/12 00:06:52;;;;;;;18.00;3.65;;;13.40;99.90;;;;;;5009587;28;20112;-93
2022/06/12 00:09:18;;;;;;;12.70;3.22;;;13.40;99.90;;;;;;5008232;28;20032;-93
2022/06/12 00:11:44;;;;;;;17.20;3.83;;;13.30;99.90;;;;;;5008868;28;20118;-92
2022/06/12 00:14:14;;;;;;;23.80;3.72;;;13.30;99.90;;;;;;5028418;28;20048;-90
2022/06/12 00:16:41;;;;;;;17.02;3.38;;;13.30;99.90;;;;;;5015318;28;20032;-93
2022/06/12 00:19:08;;;;;;;13.63;3.83;;;13.30;99.90;;;;;;5008551;28;20037;-92
2022/06/12 00:21:34;;;;;;;23.77;4.43;;;13.30;99.90;;;;;;5010271;28;20022;-93
2022/06/12 00:24:07;;;;;;;18.08;3.67;;;13.30;99.90;;;;;;5007118;28;20022;-92
2022/06/12 00:26:46;;;;;;;18.85;3.97;;;13.20;99.90;;;;;;5029854;28;20072;-93
2022/06/12 00:29:21;;;;;;;20.73;3.53;;;13.20;99.90;;;;;;5008613;28;20479;-93
2022/06/12 00:31:51;;;;;;;17.70;3.63;;;13.20;99.90;;;;;;5026942;28;20052;-92
2022/06/12 00:34:19;;;;;;;14.80;3.25;;;13.20;99.90;;;;;;5001739;28;20037;-93
2022/06/12 00:36:45;;;;;;;21.15;3.88;;;13.20;99.90;;;;;;5005625;28;20117;-93
2022/06/12 00:39:11;;;;;;;20.30;3.75;;;13.20;99.90;;;;;;5008744;28;20203;-93
2022/06/12 00:41:39;;;;;;;18.35;3.65;;;13.20;99.90;;;;;;5026692;28;20084;-91
2022/06/12 00:44:06;;;;;;;15.93;3.85;;;13.20;99.90;;;;;;5004199;28;20026;-92
2022/06/12 00:47:13;;;;;;;16.50;3.30;;;13.20;99.90;;;;;;5008163;28;20049;-93
2022/06/12 00:49:49;;;;;;;22.88;4.07;;;13.20;99.90;;;;;;5002753;28;20068;-93
2022/06/12 00:52:27;;;;;;;15.95;3.50;;;13.20;99.90;;;;;;5009744;28;20033;-93
2022/06/12 00:54:58;;;;;;;18.33;3.88;;;13.20;99.90;;;;;;5011116;28;20104;-93
2022/06/12 00:57:25;;;;;;;19.75;3.45;;;13.20;99.90;;;;;;5006910;28;20104;-92
2022/06/12 01:00:00;;;;;;;16.50;3.35;;;13.20;99.90;;;;;;5006503;28;20535;-92
2022/06/12 01:02:29;;;;;;;15.10;4.82;;;13.20;99.90;;;;;;5007100;28;20676;-94
2022/06/12 01:07:46;;;;;;;26.70;4.00;;;13.20;99.90;;;;;;5026677;28;20673;-90
2022/06/12 01:10:15;;;;;;;26.27;4.18;;;13.20;99.90;;;;;;5008345;28;20025;-91
2022/06/12 01:12:48;;;;;;;22.58;3.45;;;13.20;99.90;;;;;;5032734;28;20022;-92
2022/06/12 01:15:30;;;;;;;23.63;4.30;;;13.20;99.90;;;;;;5008133;28;20055;-91
2022/06/12 01:17:57;;;;;;;19.40;3.40;;;13.20;99.90;;;;;;5008061;28;20026;-94
2022/06/12 01:20:32;;;;;;;12.45;3.13;;;13.20;99.90;;;;;;5023567;28;20052;-93
2022/06/12 01:23:04;;;;;;;21.05;4.47;;;13.20;99.90;;;;;;5008525;28;20022;-93
2022/06/12 01:25:58;;;;;;;19.70;3.70;;;13.10;99.90;;;;;;5010190;28;20136;-93
2022/06/12 01:28:44;;;;;;;18.90;4.35;;;13.10;99.90;;;;;;5011500;28;20018;-92
2022/06/12 01:31:21;;;;;;;18.15;4.38;;;13.10;99.90;;;;;;5038352;28;20021;-93
2022/06/12 01:34:15;;;;;;;15.32;4.03;;;13.10;99.90;;;;;;5024659;28;20041;-94
2022/06/12 01:37:15;;;;;;;15.00;3.38;;;13.20;99.90;;;;;;5010947;28;20037;-92
2022/06/12 01:39:57;;;;;;;18.38;3.95;;;13.20;99.90;;;;;;4962339;28;20043;-93
2022/06/12 01:42:35;;;;;;;15.73;3.63;;;13.10;99.90;;;;;;4947624;28;20027;-92
2022/06/12 01:45:23;;;;;;;18.50;3.53;;;13.10;99.90;;;;;;4944592;28;20105;-93
2022/06/12 01:48:00;;;;;;;11.18;3.35;;;13.10;99.90;;;;;;4947062;29;20274;-93
2022/06/12 01:50:41;;;;;;;14.82;3.53;;;13.10;99.90;;;;;;4946258;28;20047;-92
2022/06/12 01:53:23;;;;;;;17.40;4.50;;;13.00;99.90;;;;;;4949286;28;20047;-94
2022/06/12 01:55:52;;;;;;;14.52;3.25;;;13.10;99.90;;;;;;4947230;28;20026;-93
2022/06/12 01:58:29;;;;;;;23.95;4.80;;;13.00;99.90;;;;;;4962421;28;20101;-92
2022/06/12 02:01:30;;;;;;;21.10;3.33;;;13.00;99.90;;;;;;4963439;28;20027;-92
2022/06/12 02:04:01;;;;;;;16.27;2.88;;;13.00;99.90;;;;;;4961529;28;20046;-93
2022/06/12 02:06:35;;;;;;;22.17;5.18;;;13.00;99.90;;;;;;4962185;28;20068;-93
2022/06/12 02:09:15;;;;;;;19.98;4.07;;;13.00;99.90;;;;;;4948295;28;20034;-91
2022/06/12 02:14:53;;;;;;;12.57;3.30;;;13.00;99.90;;;;;;4959054;28;20155;-90
2022/06/12 02:17:26;;;;;;;15.63;3.85;;;13.00;99.90;;;;;;4997811;28;20037;-93
2022/06/12 02:19:53;;;;;;;16.30;3.95;;;13.00;99.90;;;;;;5004702;28;20491;-92
2022/06/12 02:22:30;;;;;;;24.90;4.75;;;13.00;99.90;;;;;;5006680;28;20089;-92
2022/06/12 02:25:04;;;;;;;16.27;3.97;;;13.00;99.90;;;;;;5006936;28;20030;-92
2022/06/12 02:27:39;;;;;;;15.13;4.18;;;13.00;99.90;;;;;;5006961;28;20645;-92
2022/06/12 02:30:31;;;;;;;14.90;3.42;;;13.00;99.90;;;;;;5007168;28;20057;-94
2022/06/12 02:33:06;;;;;;;14.00;3.33;;;13.00;99.90;;;;;;5022357;28;20026;-93
2022/06/12 02:35:41;;;;;;;19.92;3.75;;;12.90;99.90;;;;;;5006679;28;20033;-93
2022/06/12 02:38:29;;;;;;;20.63;3.80;;;13.00;99.90;;;;;;5005617;28;20030;-93
2022/06/12 02:41:07;;;;;;;19.10;4.78;;;12.90;99.90;;;;;;5005833;28;20025;-92
2022/06/12 02:43:36;;;;;;;20.73;4.15;;;12.90;99.90;;;;;;5004408;28;20033;-92
2022/06/12 02:46:05;;;;;;;16.30;3.85;;;12.90;99.90;;;;;;5007346;28;20022;-93
2022/06/12 02:48:32;;;;;;;18.15;3.58;;;12.80;99.90;;;;;;5006645;28;20491;-92
2022/06/12 02:51:29;;;;;;;19.08;4.13;;;12.80;99.90;;;;;;5014977;28;20056;-89
2022/06/12 02:53:58;;;;;;;19.23;3.70;;;12.80;99.90;;;;;;4939762;29;20125;-93
2022/06/12 02:56:32;;;;;;;18.88;3.97;;;12.70;99.90;;;;;;4944121;29;20445;-93
2022/06/12 02:59:10;;;;;;;11.52;3.72;;;12.70;99.90;;;;;;4937343;29;20059;-92
2022/06/12 03:01:48;;;;;;;15.05;4.18;;;12.70;99.90;;;;;;4940542;29;20031;-93
2022/06/12 03:04:34;;;;;;;21.65;4.40;;;12.60;99.90;;;;;;4936693;29;20035;-92
2022/06/12 03:07:00;;;;;;;16.25;3.53;;;12.60;99.90;;;;;;4939750;29;20370;-91
2022/06/12 03:09:26;;;;;;;14.82;3.67;;;12.60;99.90;;;;;;4940378;29;20031;-94
2022/06/12 03:11:54;;;;;;;16.80;3.15;;;12.50;99.90;;;;;;4931109;29;20126;-94
2022/06/12 03:14:21;;;;;;;15.70;3.53;;;12.50;99.90;;;;;;4947556;29;20559;-95
2022/06/12 03:16:48;;;;;;;13.63;2.88;;;12.50;99.90;;;;;;4948216;29;20023;-93
2022/06/12 03:19:23;;;;;;;26.45;3.72;;;12.50;99.90;;;;;;4938563;29;20057;-92
2022/06/12 03:22:19;;;;;;;17.92;3.92;;;12.50;99.90;;;;;;4945594;29;20030;-94
2022/06/12 03:25:22;;;;;;;13.05;3.40;;;12.40;99.90;;;;;;4932513;29;20035;-94
2022/06/12 03:28:08;;;;;;;17.63;3.97;;;12.40;99.90;;;;;;4938920;29;20035;-93
2022/06/12 03:31:12;;;;;;;24.60;4.45;;;12.40;99.90;;;;;;4960161;28;20041;-94
2022/06/12 03:33:38;;;;;;;24.48;4.35;;;12.40;99.90;;;;;;4967808;28;20030;-94
2022/06/12 03:36:14;;;;;;;18.45;3.50;;;12.30;99.90;;;;;;5007273;28;20045;-93
2022/06/12 03:38:58;;;;;;;12.73;3.20;;;12.30;99.90;;;;;;5028274;28;20555;-95
2022/06/12 03:41:31;;;;;;;11.95;3.40;;;12.30;99.90;;;;;;5006128;28;20065;-92
2022/06/12 03:44:14;;;;;;;21.67;6.03;;;12.30;99.90;;;;;;5006308;28;20506;-93
2022/06/12 03:47:03;;;;;;;25.88;5.47;;;12.30;99.90;;;;;;5003656;28;20106;-94
2022/06/12 03:50:06;;;;;;;15.68;4.32;;;12.30;99.90;;;;;;5012754;28;20108;-94
2022/06/12 03:52:40;;;;;;;18.38;4.00;;;12.30;99.90;;;;;;4969904;28;20102;-94
2022/06/12 03:55:18;;;;;;;16.80;3.67;;;12.30;99.90;;;;;;5028736;28;20037;-92
2022/06/12 03:57:53;;;;;;;18.92;3.70;;;12.30;99.90;;;;;;5009840;28;20067;-91
2022/06/12 04:00:27;;;;;;;17.13;3.33;;;12.30;99.90;;;;;;5010286;28;20029;-94
2022/06/12 04:03:08;;;;;;;19.73;4.18;;;12.30;99.90;;;;;;5010444;28;20485;-95
2022/06/12 04:05:36;;;;;;;;;;;12.30;99.90;;;;;;5009657;28;20026;-92
2022/06/12 04:08:05;;;;;;;11.20;3.22;;;12.40;99.90;;;;;;5005983;28;19951;-92
2022/06/12 04:10:35;;;;;;;15.70;3.70;;;12.30;99.90;;;;;;5018895;28;20104;-92
2022/06/12 04:13:02;;;;;;;12.60;3.57;;;12.30;99.90;;;;;;5032865;28;20032;-94
2022/06/12 04:15:37;;;;;;;21.00;4.07;;;12.30;99.90;;;;;;5010112;28;20026;-93
2022/06/12 04:18:04;;;;;;;25.92;4.60;;;12.40;99.90;;;;;;5009253;28;20075;-95
2022/06/12 04:20:42;;;;;;;20.55;4.22;;;12.40;99.90;;;;;;5008485;28;20033;-94
2022/06/12 04:23:19;;;;;;;26.15;4.32;;;12.40;99.90;;;;;;5010956;28;20381;-93
2022/06/12 04:26:11;;;;;;;22.92;4.40;;;12.40;99.90;;;;;;5007248;28;20026;-93
2022/06/12 04:28:41;;;;;;;19.23;4.47;;;12.40;99.90;;;;;;4966287;28;20080;-93
2022/06/12 04:31:12;;;;;;;21.77;5.05;;;12.40;99.90;;;;;;5023577;28;20018;-93
2022/06/12 04:34:03;;;;;;;18.13;4.60;;;12.50;99.90;;;;;;5008306;28;20061;-95
2022/06/12 04:36:28;;;;;;;21.52;3.72;;;12.50;99.90;;;;;;5007489;28;20032;-93
2022/06/12 04:38:54;;;;;;;18.83;3.75;;;12.50;99.90;;;;;;5007658;28;20053;-94
2022/06/12 04:41:24;;;;;;;13.18;3.88;;;12.60;99.90;;;;;;5004751;28;20104;-93
2022/06/12 04:43:50;;;;;;;16.50;4.40;;;12.60;99.90;;;;;;5009997;28;20091;-93
2022/06/12 04:46:16;;;;;;;19.52;4.78;;;12.60;99.90;;;;;;5003959;28;20026;-92
2022/06/12 04:48:44;;;;;;;16.23;4.47;;;12.60;99.90;;;;;;5000571;28;20112;-93
2022/06/12 04:51:11;;;;;;;18.25;4.05;;;12.60;99.90;;;;;;5009735;28;20087;-93
2022/06/12 04:53:37;;;;;;;20.35;5.35;;;12.70;99.90;;;;;;4998665;28;20033;-94
2022/06/12 04:56:04;;;;;;;19.58;4.43;;;12.70;99.90;;;;;;5016096;28;20045;-94
2022/06/12 04:58:30;;;;;;;19.27;5.72;;;12.70;99.90;;;;;;4998611;28;20116;-95
2022/06/12 05:00:56;;;;;;;12.85;3.72;;;12.70;99.90;;;;;;4998666;28;20041;-93
2022/06/12 05:03:22;;;;;;;18.00;5.55;;;12.70;99.90;;;;;;4999399;28;20032;-94
2022/06/12 05:05:48;;;;;;;18.35;4.40;;;12.70;99.90;;;;;;4999754;28;20127;-93
2022/06/12 05:08:15;;;;;;;23.55;4.32;;;12.70;99.90;;;;;;4999567;28;20048;-94
2022/06/12 05:10:41;;;;;;;11.95;3.30;;;12.70;99.90;;;;;;4998772;28;20105;-92
2022/06/12 05:13:07;;;;;;;24.83;5.68;;;12.70;99.90;;;;;;4999274;28;20034;-94
2022/06/12 05:15:33;;;;;;;15.50;3.92;;;12.70;99.90;;;;;;5000245;28;20048;-92
2022/06/12 05:17:58;;;;;;;19.42;4.60;;;12.70;99.90;;;;;;5000436;28;20462;-93
2022/06/12 05:20:28;;;;;;;14.98;4.90;;;12.70;99.90;;;;;;5000550;28;20471;-93
2022/06/12 05:22:54;;;;;;;21.95;3.67;;;12.70;99.90;;;;;;5001256;28;20030;-95
2022/06/12 05:25:20;;;;;;;9.25;3.20;;;12.70;99.90;;;;;;5007573;28;20054;-92
2022/06/12 05:27:47;;;;;;;13.98;3.72;;;12.70;99.90;;;;;;5016914;28;20026;-93
2022/06/12 05:30:15;;;;;;;14.15;4.15;;;12.70;99.90;;;;;;5003013;28;20022;-94
2022/06/12 05:32:42;;;;;;;20.73;3.83;;;12.70;99.90;;;;;;5013992;28;20076;-93
2022/06/12 05:35:09;;;;;;;24.75;3.80;;;12.80;99.90;;;;;;5013967;28;20041;-91
2022/06/12 05:37:36;;;;;;;21.42;3.58;;;12.80;99.90;;;;;;5011123;28;20037;-92
2022/06/12 05:40:06;;;;;;;13.85;3.78;;;12.80;99.90;;;;;;5004224;28;20522;-91
2022/06/12 05:42:31;;;;;;;16.50;3.80;;;12.80;99.90;;;;;;5000992;28;20018;-94
2022/06/12 05:44:57;;;;;;;18.38;3.45;;;12.80;99.90;;;;;;5000036;28;20287;-94
2022/06/12 05:47:23;;;;;;;15.68;4.38;;;12.70;99.90;;;;;;5000347;28;20041;-95
2022/06/12 05:49:49;;;;;;;23.13;4.00;;;12.70;99.90;;;;;;5000005;28;20030;-93
2022/06/12 05:52:15;;;;;;;24.08;4.82;;;12.70;99.90;;;;;;5000085;28;20073;-93
2022/06/12 05:54:41;;;;;;;20.88;4.07;;;12.70;99.90;;;;;;4999795;28;20049;-91
2022/06/12 05:57:07;;;;;;;11.52;3.35;;;12.70;99.90;;;;;;5000411;28;20026;-93
2022/06/12 05:59:33;;;;;;;17.13;3.80;;;12.70;99.90;;;;;;5000890;28;20057;-93
2022/06/12 06:01:59;;;;;;;18.58;3.70;;;12.70;99.90;;;;;;5000779;28;20061;-94
2022/06/12 06:04:24;;;;;;;21.48;4.53;;;12.70;99.90;;;;;;4999669;28;20093;-94
2022/06/12 06:06:53;;;;;;;20.20;4.03;;;12.70;99.90;;;;;;4999549;28;20034;-94
2022/06/12 06:09:20;;;;;;;23.38;3.72;;;12.80;99.90;;;;;;5000088;28;20574;-93
2022/06/12 06:11:47;;;;;;;23.80;4.15;;;12.80;99.90;;;;;;5017259;28;20030;-94
2022/06/12 06:14:12;;;;;;;23.05;5.00;;;12.70;99.90;;;;;;5000151;28;20026;-94
2022/06/12 06:16:40;;;;;;;16.45;3.72;;;12.80;99.90;;;;;;4999481;28;20537;-93
2022/06/12 06:19:06;;;;;;;21.10;4.38;;;12.80;99.90;;;;;;4999423;28;20065;-94
2022/06/12 06:21:31;;;;;;;19.80;3.97;;;12.80;99.90;;;;;;4999617;28;20034;-93
2022/06/12 06:23:57;;;;;;;20.95;4.72;;;12.80;99.90;;;;;;4999763;28;20033;-93
2022/06/12 06:26:23;;;;;;;17.73;3.80;;;12.80;99.90;;;;;;4999729;28;20485;-93
2022/06/12 06:28:51;;;;;;;19.75;4.70;;;12.90;99.90;;;;;;5003685;28;20025;-93
2022/06/12 06:31:18;;;;;;;13.32;4.03;;;12.90;99.90;;;;;;5009127;28;20040;-95
2022/06/12 06:33:43;;;;;;;16.20;4.53;;;12.90;99.90;;;;;;5013062;28;20085;-94
2022/06/12 06:36:11;;;;;;;16.02;4.00;;;13.00;99.90;;;;;;5013533;28;20098;-94
2022/06/12 06:38:37;;;;;;;21.75;4.57;;;13.00;99.90;;;;;;5012189;28;20112;-93
2022/06/12 06:41:04;;;;;;;20.55;4.68;;;13.00;99.90;;;;;;5018681;28;20159;-92
2022/06/12 06:46:13;;;;;;;22.63;4.20;;;13.00;99.90;;;;;;5015367;28;20029;-94
2022/06/12 06:46:15;;;;;;;19.77;4.70;;;13.00;99.90;;;;;;5031994;28;20049;-94
2022/06/12 06:48:41;;;;;;;20.55;4.32;;;13.00;99.90;;;;;;5019788;28;20068;-88
2022/06/12 06:51:07;;;;;;;18.65;4.10;;;13.00;99.90;;;;;;5021251;28;20061;-92
2022/06/12 06:53:33;;;;;;;20.08;4.40;;;13.00;99.90;;;;;;5011774;28;20478;-93
2022/06/12 06:55:58;;;;;;;20.52;4.32;;;13.10;99.90;;;;;;5009997;28;20491;-94
2022/06/12 06:58:27;;;;;;;14.48;3.60;;;13.10;99.90;;;;;;5009490;28;20025;-92
2022/06/12 07:00:53;;;;;;;17.88;3.75;;;13.10;99.90;;;;;;5011506;28;20368;-93
2022/06/12 07:03:20;;;;;;;20.17;4.18;;;13.10;99.90;;;;;;5010157;28;20467;-92
2022/06/12 07:05:48;;;;;;;20.02;3.60;;;13.20;99.90;;;;;;5008050;28;20022;-93
2022/06/12 07:08:15;;;;;;;18.42;3.83;;;13.20;99.90;;;;;;5008433;28;20061;-94
2022/06/12 07:10:42;;;;;;;20.10;4.22;;;13.30;99.90;;;;;;5009370;28;20033;-91
2022/06/12 07:13:09;;;;;;;18.05;4.53;;;13.30;99.90;;;;;;5009734;28;20390;-94
2022/06/12 07:15:36;;;;;;;16.83;3.95;;;13.30;99.90;;;;;;5008164;28;20041;-92
2022/06/12 07:18:04;;;;;;;14.20;3.15;;;13.40;99.90;;;;;;5008365;28;20049;-93
2022/06/12 07:20:33;;;;;;;18.42;3.40;;;13.40;99.90;;;;;;5027717;28;20036;-93
2022/06/12 07:22:59;;;;;;;18.33;3.42;;;13.40;99.90;;;;;;5010519;28;20395;-93
2022/06/12 07:25:24;;;;;;;18.77;3.65;;;13.40;99.90;;;;;;5030596;28;20021;-93
2022/06/12 07:27:50;;;;;;;20.90;3.92;;;13.50;99.90;;;;;;5011792;28;20029;-93
2022/06/12 07:30:21;;;;;;;13.88;3.50;;;13.50;99.90;;;;;;5012602;28;20025;-92
2022/06/12 07:32:47;;;;;;;17.80;3.75;;;13.50;99.90;;;;;;5036334;28;20156;-90
2022/06/12 07:35:13;;;;;;;19.67;4.15;;;13.40;99.90;;;;;;5045858;28;20014;-88
2022/06/12 07:37:40;;;;;;;13.20;3.10;;;13.40;99.90;;;;;;5029975;28;20025;-93
2022/06/12 07:40:11;;;;;;;22.48;3.63;;;13.50;99.90;;;;;;5009695;28;20034;-92
2022/06/12 07:42:37;;;;;;;19.80;3.95;;;13.50;99.90;;;;;;5010072;28;20017;-93
2022/06/12 07:45:03;;;;;;;17.60;3.60;;;13.50;99.90;;;;;;5027930;28;20021;-91
2022/06/12 07:47:29;;;;;;;16.38;3.30;;;13.60;99.90;;;;;;5026848;28;20418;-93
2022/06/12 07:49:55;;;;;;;19.70;3.17;;;13.60;99.90;;;;;;5006365;28;20021;-93
2022/06/12 07:52:21;;;;;;;24.42;4.10;;;13.50;99.90;;;;;;5008089;28;20129;-92
2022/06/12 07:54:46;;;;;;;18.77;3.67;;;13.40;99.90;;;;;;5007249;28;20075;-92
2022/06/12 07:57:12;;;;;;;25.40;4.38;;;13.50;99.90;;;;;;5008985;28;20088;-92
2022/06/12 07:59:38;;;;;;;17.58;3.05;;;13.70;99.90;;;;;;5007585;28;20045;-92
2022/06/12 08:02:05;;;;;;;15.27;3.33;;;13.80;99.90;;;;;;5008012;28;20018;-92
2022/06/12 08:04:31;;;;;;;24.45;4.18;;;13.90;99.90;;;;;;5014200;28;20044;-91
2022/06/12 08:06:57;;;;;;;20.77;3.60;;;13.90;99.90;;;;;;5012056;28;20049;-89
2022/06/12 08:09:23;;;;;;;19.40;3.85;;;14.00;99.90;;;;;;5025494;28;20026;-88
2022/06/12 08:11:50;;;;;;;16.67;3.10;;;14.00;99.90;;;;;;5024317;28;20077;-90
2022/06/12 08:14:20;;;;;;;18.30;4.35;;;14.10;99.90;;;;;;5040534;28;20467;-92
2022/06/12 08:16:45;;;;;;;13.50;3.25;;;14.00;99.90;;;;;;5009787;28;20029;-92
2022/06/12 08:21:58;;;;;;;9.32;2.92;;;14.00;99.90;;;;;;5024948;28;20041;-91
2022/06/12 08:24:24;;;;;;;21.20;4.75;;;14.10;99.90;;;;;;5007043;28;20025;-92
2022/06/12 08:26:49;;;;;;;13.27;3.08;;;14.20;99.90;;;;;;5005973;28;20044;-93
2022/06/12 08:29:15;;;;;;;13.23;2.80;;;14.30;99.90;;;;;;5009149;28;20490;-93
2022/06/12 08:31:43;;;;;;;17.90;3.55;;;14.50;99.90;;;;;;5020392;28;20037;-90
2022/06/12 08:34:15;;;;;;;19.38;3.35;;;14.60;99.90;;;;;;5014118;28;20428;-89
2022/06/12 08:36:41;;;;;;;17.58;2.90;;;14.70;99.90;;;;;;5005953;28;20573;-91
2022/06/12 08:39:07;;;;;;;18.65;3.63;;;14.80;99.20;;;;;;5008559;28;20041;-92
2022/06/12 08:41:52;;;;;;;12.05;2.55;;;14.90;98.90;;;;;;5005603;28;20029;-95
2022/06/12 08:44:33;;;;;;;14.40;2.90;;;14.90;98.40;;;;;;5006706;28;20018;-92
2022/06/12 08:47:16;;;;;;;22.70;2.83;;;15.00;97.40;;;;;;5008353;28;20014;-91
2022/06/12 08:50:16;;;;;;;15.00;2.88;;;15.00;96.30;;;;;;5006441;28;20112;-92
2022/06/12 08:52:52;;;;;;;13.40;2.83;;;15.10;95.50;;;;;;5006922;28;20052;-93
2022/06/12 08:55:50;;;;;;;15.27;4.32;;;15.10;95.10;;;;;;5007024;28;20135;-93
2022/06/12 08:58:24;;;;;;;10.50;2.20;;;15.20;94.70;;;;;;5007775;28;20112;-93
2022/06/12 09:00:50;;;;;;;15.18;2.47;;;15.50;94.30;;;;;;5005334;28;20069;-91
2022/06/12 09:03:20;;;;;;;14.77;4.22;;;15.70;92.80;;;;;;5005036;28;20113;-94
2022/06/12 09:05:51;;;;;;;9.68;1.83;;;15.80;91.00;;;;;;5024497;28;20037;-92
2022/06/12 09:08:24;;;;;;;9.52;2.20;;;15.80;89.30;;;;;;5008616;28;20036;-91
2022/06/12 09:11:23;;;;;;;11.52;1.90;;;16.00;87.70;;;;;;5006076;28;20112;-92
2022/06/12 09:13:49;;;;;;;13.32;2.33;;;16.10;85.20;;;;;;5007410;28;20057;-90
2022/06/12 09:16:26;;;;;;;14.30;3.08;;;16.10;82.60;;;;;;5002608;28;20041;-93
2022/06/12 09:18:55;;;;;;;9.55;2.58;;;16.00;82.10;;;;;;5010807;28;20120;-91
2022/06/12 09:21:58;;;;;;;14.98;3.15;;;15.90;82.50;;;;;;5009471;28;20057;-94
2022/06/12 09:24:52;;;;;;;16.13;3.13;;;15.90;83.00;;;;;;5001067;28;20030;-94
2022/06/12 09:27:21;;;;;;;17.95;2.55;;;15.90;83.30;;;;;;5027415;28;20107;-95
2022/06/12 09:29:59;;;;;;;10.77;2.83;;;16.10;83.90;;;;;;5022815;28;20041;-91
2022/06/12 09:32:42;;;;;;;15.35;3.00;;;16.30;84.20;;;;;;5004011;28;20026;-91
2022/06/12 09:35:38;;;;;;;16.98;2.65;;;16.50;83.30;;;;;;5009663;28;20067;-93
2022/06/12 09:38:31;;;;;;;12.15;2.65;;;16.70;82.30;;;;;;5013567;28;20025;-92
2022/06/12 09:41:09;;;;;;;7.47;2.30;;;16.70;80.50;;;;;;5004106;28;20025;-91
2022/06/12 09:43:41;;;;;;;16.70;2.47;;;16.80;79.50;;;;;;5009676;28;20407;-93
2022/06/12 09:46:37;;;;;;;10.18;1.92;;;16.80;79.30;;;;;;5012672;28;20044;-94
2022/06/12 09:49:18;;;;;;;15.82;2.53;;;17.00;78.40;;;;;;5005811;28;20050;-93
2022/06/12 09:52:02;;;;;;;;;;;17.10;76.60;;;;;;5012340;28;20025;-94
2022/06/12 09:54:43;;;;;;;9.88;2.85;;;17.30;76.30;;;;;;5008627;28;19909;-93
2022/06/12 09:57:18;;;;;;;;;;;17.40;75.70;;;;;;5009577;28;20047;-93
2022/06/12 09:59:58;;;;;;;11.32;2.35;;;17.60;75.70;;;;;;5005592;28;20386;-93
2022/06/12 10:02:32;;;;;;;16.27;1.95;;;17.70;74.70;;;;;;5002989;28;20037;-92
2022/06/12 10:05:24;;;;;;;11.18;2.30;;;17.70;72.80;;;;;;5021869;28;20032;-95
2022/06/12 10:08:12;;;;;;;16.80;2.50;;;17.50;72.20;;;;;;5024593;28;20034;-93
2022/06/12 10:10:51;;;;;;;9.32;2.30;;;17.30;72.60;;;;;;4998412;28;20049;-93
2022/06/12 10:13:27;;;;;;;12.13;2.65;;;17.40;72.90;;;;;;5007481;28;20018;-93
2022/06/12 10:15:59;;;;;;;13.05;2.60;;;17.50;73.10;;;;;;5028811;28;20026;-94
2022/06/12 10:18:52;;;;;;;8.35;1.92;;;17.60;72.40;;;;;;5004252;28;20049;-92
2022/06/12 10:21:21;;;;;;;12.63;2.30;;;17.60;71.70;;;;;;5008878;28;20030;-96
2022/06/12 10:23:50;;;;;;;11.43;2.38;;;17.60;72.00;;;;;;5043550;28;20093;-94
2022/06/12 10:26:29;;;;;;;15.00;2.90;;;17.70;71.50;;;;;;5008671;28;20026;-94
2022/06/12 10:29:01;;;;;;;12.30;2.13;;;17.90;72.00;;;;;;5005787;28;20033;-94
2022/06/12 10:31:26;;;;;;;10.30;2.13;;;18.20;72.30;;;;;;5017135;28;20378;-93
2022/06/12 10:33:56;;;;;;;10.50;2.17;;;18.50;72.00;;;;;;5015897;28;20022;-94
2022/06/12 10:36:22;;;;;;;15.45;2.35;;;18.70;71.20;;;;;;5024077;28;20474;-92
2022/06/12 10:38:49;;;;;;;9.30;3.42;;;19.00;70.20;;;;;;5035564;28;20034;-95
2022/06/12 10:41:29;;;;;;;12.15;2.35;;;19.10;69.20;;;;;;5009973;28;20036;-94
2022/06/12 10:43:59;;;;;;;11.77;2.50;;;19.30;67.90;;;;;;5005956;28;20021;-94
2022/06/12 10:46:31;;;;;;;12.57;2.40;;;19.30;67.70;;;;;;5018862;28;20037;-92
2022/06/12 10:49:05;;;;;;;9.38;1.70;;;19.40;67.90;;;;;;5026074;28;20057;-93
2022/06/12 10:51:38;;;;;;;7.70;1.98;;;19.30;66.30;;;;;;5007629;28;20427;-93
2022/06/12 10:54:15;;;;;;;5.55;1.40;;;19.10;66.20;;;;;;5022796;28;20080;-93
2022/06/12 10:57:09;;;;;;;12.35;2.15;;;18.80;65.20;;;;;;5012439;28;20067;-93
2022/06/12 10:59:50;;;;;;;10.05;2.03;;;18.80;65.90;;;;;;5024805;28;20099;-90
2022/06/12 11:02:25;;;;;;;;;;;18.80;65.90;;;;;;5027257;28;20052;-92
2022/06/12 11:05:19;;;;;;;10.27;1.90;;;18.90;65.80;;;;;;5033293;28;19912;-91
2022/06/12 11:08:05;;;;;;;10.27;1.85;;;19.10;65.90;;;;;;5047611;28;20025;-93
2022/06/12 11:11:09;;;;;;;7.47;1.67;;;19.30;65.90;;;;;;5033822;28;20021;-95
2022/06/12 11:13:47;;;;;;;7.03;1.40;;;19.70;65.50;;;;;;4974990;28;20117;-92
2022/06/12 11:16:21;;;;;;;6.38;1.83;;;20.00;62.80;;;;;;5000253;28;20090;-90
2022/06/12 11:18:50;;;;;;;6.13;1.60;;;19.90;62.20;;;;;;5009156;28;20038;-91
2022/06/12 11:21:34;;;;;;;9.30;2.20;;;19.90;61.60;;;;;;5010023;28;20060;-93
2022/06/12 11:24:06;;;;;;;7.80;1.60;;;19.90;61.50;;;;;;5018975;28;20081;-93
2022/06/12 11:27:03;;;;;;;6.22;1.67;;;20.00;61.50;;;;;;5006107;28;20033;-94
2022/06/12 11:29:37;;;;;;;11.57;1.80;;;20.10;61.00;;;;;;5020165;28;20051;-92
2022/06/12 11:32:41;;;;;;;6.57;1.48;;;20.00;59.40;;;;;;5027486;28;20032;-92
2022/06/12 11:35:19;;;;;;;5.63;1.60;;;19.80;60.00;;;;;;5016233;28;20080;-94
2022/06/12 11:38:08;;;;;;;7.93;1.60;;;20.20;60.50;;;;;;5022117;28;20016;-96
2022/06/12 11:41:02;;;;;;;9.35;1.92;;;20.50;60.40;;;;;;5008039;28;20069;-95
2022/06/12 11:43:48;;;;;;;5.28;1.25;;;20.60;59.90;;;;;;5011257;28;20251;-92
2022/06/12 11:46:29;;;;;;;6.00;1.38;;;20.50;59.10;;;;;;5005540;28;20044;-92
2022/06/12 11:49:15;;;;;;;6.43;1.23;;;20.20;58.70;;;;;;5004588;28;20049;-93
2022/06/12 11:52:29;;;;;;;5.85;1.30;;;20.10;58.50;;;;;;4993369;28;20038;-95
2022/06/12 11:55:12;;;;;;;8.98;2.08;;;19.90;58.80;;;;;;4939385;29;20068;-92
2022/06/12 11:58:17;;;;;;;3.17;1.30;;;19.80;59.00;;;;;;4956699;29;20031;-92
2022/06/12 12:01:00;;;;;;;9.05;1.73;;;19.90;58.80;;;;;;4940317;28;20066;-93
2022/06/12 12:03:41;;;;;;;3.95;1.45;;;20.10;58.90;;;;;;4957563;28;20109;-93
2022/06/12 12:06:27;;;;;;;;;;;20.50;59.30;;;;;;4966595;28;20034;-93
2022/06/12 12:09:10;;;;;;;9.20;2.00;;;20.90;58.90;;;;;;4946994;28;19921;-91
2022/06/12 12:11:43;;;;;;;5.15;1.80;;;21.00;58.40;;;;;;4954301;29;20070;-93
2022/06/12 12:14:24;;;;;;;6.90;1.90;;;20.90;58.10;;;;;;4948631;28;20031;-95
2022/06/12 12:16:51;;;;;;;9.95;1.98;;;20.80;58.10;;;;;;4958719;29;20046;-92
2022/06/12 12:19:35;;;;;;;6.10;1.38;;;20.70;58.30;;;;;;4959811;29;20047;-93
2022/06/12 12:22:15;;;;;;;6.93;1.55;;;20.50;58.10;;;;;;4955867;28;20126;-95
2022/06/12 12:25:02;;;;;;;11.02;1.85;;;20.60;58.00;;;;;;4955100;28;20062;-95
2022/06/12 12:27:50;;;;;;;4.97;1.33;;;20.70;58.80;;;;;;4939232;29;20047;-94
2022/06/12 12:30:35;;;;;;;5.00;1.20;;;20.90;58.00;;;;;;4948861;28;20023;-95
2022/06/12 12:33:04;;;;;;;4.78;1.30;;;21.00;57.70;;;;;;4999708;28;20033;-92
2022/06/12 12:41:13;;;;;;;5.78;1.35;;;20.30;57.80;;;;;;5038381;28;20048;-93
2022/06/12 12:43:58;;;;;;;9.32;2.10;;;20.00;58.10;;;;;;5037053;28;20025;-90
2022/06/12 12:46:46;;;;;;;9.02;2.05;;;19.80;58.70;;;;;;5018015;28;20033;-92
2022/06/12 12:49:24;;;;;;;8.88;1.77;;;19.60;59.30;;;;;;5037017;28;20108;-95
2022/06/12 12:51:51;;;;;;;6.22;1.35;;;19.50;59.70;;;;;;5039099;28;20474;-94
2022/06/12 12:54:20;;;;;;;6.68;1.85;;;19.50;59.80;;;;;;5024434;28;20022;-93
2022/06/12 12:56:56;;;;;;;7.13;1.58;;;19.40;60.30;;;;;;5045814;28;20022;-92
2022/06/12 12:59:42;;;;;;;6.10;1.65;;;19.20;60.80;;;;;;5025391;28;20132;-93
2022/06/12 13:02:25;;;;;;;6.15;1.60;;;19.20;61.20;;;;;;5021795;28;20053;-93
2022/06/12 13:05:01;;;;;;;11.48;1.73;;;19.00;61.20;;;;;;5024138;28;20041;-91
2022/06/12 13:07:44;;;;;;;7.35;2.08;;;18.80;61.50;;;;;;5022095;28;20022;-93
2022/06/12 13:10:25;;;;;;;7.28;1.77;;;18.60;61.80;;;;;;5021608;28;20052;-93
2022/06/12 13:13:16;;;;;;;7.00;1.40;;;18.50;62.00;;;;;;5020287;28;20040;-93
2022/06/12 13:15:44;;;;;;;9.07;1.50;;;18.50;62.40;;;;;;5019476;28;20036;-95
2022/06/12 13:18:33;;;;;;;7.90;1.58;;;18.70;62.00;;;;;;5021296;28;20082;-92
2022/06/12 13:21:21;;;;;;;5.18;1.20;;;18.80;60.60;;;;;;5023684;28;20032;-93
2022/06/12 13:24:23;;;;;;;6.50;1.48;;;18.80;60.20;;;;;;5019772;28;20437;-94
2022/06/12 13:26:48;;;;;;;7.97;1.42;;;18.90;60.20;;;;;;5032697;28;20025;-93
2022/06/12 13:29:19;;;;;;;4.47;1.20;;;19.00;60.00;;;;;;5020456;28;20108;-93
2022/06/12 13:31:55;;;;;;;7.47;1.55;;;19.00;59.90;;;;;;5020863;28;20032;-92
2022/06/12 13:34:21;;;;;;;7.15;1.58;;;19.10;60.20;;;;;;5019346;28;20111;-91